This is the latest recevied weather packets stored in our database for station/object KCXW. If no packets are shown the sender has not sent any weather packets the latest 1 day(s).
| Time | Temp. | Humidity | Pressure | Rain* | Wind** | Luminosity | Snow |
|---|---|---|---|---|---|---|---|
| 1778019207 | 21.67° C | 100% | 1005.1 hPa | - | 4.47 m/s, 160° | - | - |
| 1778018728 | 21.67° C | 100% | 1005.1 hPa | - | 4.47 m/s, 160° | - | - |
| 1778018011 | 21.67° C | 100% | 1005.8 hPa | - | 3.58 m/s, 180° | - | - |
| 1778017411 | 21.67° C | 100% | 1005.8 hPa | - | 3.58 m/s, 180° | - | - |
| 1778016810 | 20.56° C | 100% | 1005.8 hPa | - | 4.02 m/s, 170° | - | - |
| 1778016206 | 21.67° C | 100% | 1005.8 hPa | - | 4.47 m/s, 160° | - | - |
| 1778015608 | 21.67° C | 100% | 1005.8 hPa | - | 4.47 m/s, 160° | - | - |
| 1778015008 | 21.67° C | 100% | 1005.8 hPa | - | 4.47 m/s, 160° | - | - |
| 1778014406 | 21.67° C | 100% | 1005.8 hPa | - | 4.92 m/s, 160° | - | - |
| 1778013810 | 21.67° C | 100% | 1005.8 hPa | - | 4.92 m/s, 160° | - | - |
| 1778013208 | 20.56° C | 100% | 1005.8 hPa | - | 3.58 m/s, 160° | - | - |
| 1778012613 | 20.56° C | 100% | 1005.8 hPa | - | 3.58 m/s, 160° | - | - |
| 1778012007 | 20.56° C | 100% | 1006.1 hPa | - | 4.47 m/s, 170° | - | - |
| 1778011406 | 20.56° C | 100% | 1006.1 hPa | - | 4.47 m/s, 170° | - | - |
| 1778010809 | 20.56° C | 100% | 1006.1 hPa | - | 4.47 m/s, 200° | - | - |
| 1778010210 | 20.56° C | 100% | 1006.1 hPa | - | 4.47 m/s, 200° | - | - |
| 1778009606 | 20.56° C | 100% | 1006.4 hPa | - | 5.81 m/s, 180° | - | - |
| 1778009009 | 20.56° C | 100% | 1006.4 hPa | - | 5.81 m/s, 180° | - | - |
| 1778008408 | 20.56° C | 100% | 1006.4 hPa | - | 4.92 m/s, 190° | - | - |
| 1778007811 | 20.56° C | 100% | 1006.4 hPa | - | 4.92 m/s, 190° | - | - |
| 1778007210 | 20.56° C | 100% | 1006.1 hPa | - | 5.81 m/s, 180° | - | - |
| 1778006609 | 20.56° C | 100% | 1006.1 hPa | - | 5.81 m/s, 180° | - | - |
| 1778006012 | 20.56° C | 100% | 1006.1 hPa | - | 4.92 m/s, 190° | - | - |
| 1778005410 | 20.56° C | 100% | 1006.1 hPa | - | 4.92 m/s, 190° | - | - |
| 1778004807 | 21.67° C | 100% | 1006.1 hPa | - | 5.36 m/s, 190° | - | - |
* Rain since midnight (hover to see other rain measurements)
** Current wind speed in m/s (hover to see current wind gust speed)